sensor_id;sensor_type;location;lat;lon;timestamp;P1;durP1;ratioP1;P2;durP2;ratioP2
45784;SDS011;31489;51.404;5.474;2022-12-20T00:00:53;2.60;;;1.27;;
45784;SDS011;31489;51.404;5.474;2022-12-20T00:03:18;2.10;;;1.58;;
45784;SDS011;31489;51.404;5.474;2022-12-20T00:05:44;3.50;;;1.65;;
45784;SDS011;31489;51.404;5.474;2022-12-20T00:08:11;3.40;;;1.88;;
45784;SDS011;31489;51.404;5.474;2022-12-20T00:10:38;1.77;;;1.30;;
45784;SDS011;31489;51.404;5.474;2022-12-20T00:13:05;1.67;;;1.40;;
45784;SDS011;31489;51.404;5.474;2022-12-20T00:15:31;2.33;;;1.23;;
45784;SDS011;31489;51.404;5.474;2022-12-20T00:17:57;3.30;;;1.45;;
45784;SDS011;31489;51.404;5.474;2022-12-20T00:20:23;3.08;;;1.40;;
45784;SDS011;31489;51.404;5.474;2022-12-20T00:22:50;3.20;;;1.58;;
45784;SDS011;31489;51.404;5.474;2022-12-20T00:25:16;2.50;;;1.40;;
45784;SDS011;31489;51.404;5.474;2022-12-20T00:27:42;2.40;;;1.60;;
45784;SDS011;31489;51.404;5.474;2022-12-20T00:30:08;2.90;;;1.60;;
45784;SDS011;31489;51.404;5.474;2022-12-20T00:32:34;1.98;;;1.33;;
45784;SDS011;31489;51.404;5.474;2022-12-20T00:35:00;4.00;;;1.40;;
45784;SDS011;31489;51.404;5.474;2022-12-20T00:37:25;3.03;;;1.50;;
45784;SDS011;31489;51.404;5.474;2022-12-20T00:39:51;1.88;;;1.55;;
45784;SDS011;31489;51.404;5.474;2022-12-20T00:42:16;3.92;;;1.55;;
45784;SDS011;31489;51.404;5.474;2022-12-20T00:44:42;2.05;;;1.27;;
45784;SDS011;31489;51.404;5.474;2022-12-20T00:47:08;3.55;;;1.70;;
45784;SDS011;31489;51.404;5.474;2022-12-20T00:49:34;1.92;;;1.30;;
45784;SDS011;31489;51.404;5.474;2022-12-20T00:51:59;4.18;;;1.40;;
45784;SDS011;31489;51.404;5.474;2022-12-20T00:54:25;2.15;;;1.45;;
45784;SDS011;31489;51.404;5.474;2022-12-20T00:56:50;3.13;;;1.60;;
45784;SDS011;31489;51.404;5.474;2022-12-20T00:59:16;2.65;;;1.40;;
45784;SDS011;31489;51.404;5.474;2022-12-20T01:01:41;3.65;;;1.60;;
45784;SDS011;31489;51.404;5.474;2022-12-20T01:04:07;3.17;;;1.52;;
45784;SDS011;31489;51.404;5.474;2022-12-20T01:06:33;3.03;;;1.45;;
45784;SDS011;31489;51.404;5.474;2022-12-20T01:08:58;1.85;;;1.27;;
45784;SDS011;31489;51.404;5.474;2022-12-20T01:11:26;2.25;;;1.60;;
45784;SDS011;31489;51.404;5.474;2022-12-20T01:13:54;2.90;;;1.20;;
45784;SDS011;31489;51.404;5.474;2022-12-20T01:18:49;3.05;;;1.45;;
45784;SDS011;31489;51.404;5.474;2022-12-20T01:21:15;1.85;;;1.40;;
45784;SDS011;31489;51.404;5.474;2022-12-20T01:23:43;4.00;;;1.70;;
45784;SDS011;31489;51.404;5.474;2022-12-20T01:26:10;2.17;;;1.60;;
45784;SDS011;31489;51.404;5.474;2022-12-20T01:28:38;3.25;;;1.80;;
45784;SDS011;31489;51.404;5.474;2022-12-20T01:31:06;2.75;;;1.60;;
45784;SDS011;31489;51.404;5.474;2022-12-20T01:33:33;3.83;;;1.63;;
45784;SDS011;31489;51.404;5.474;2022-12-20T01:36:00;2.60;;;1.25;;
45784;SDS011;31489;51.404;5.474;2022-12-20T01:38:28;1.88;;;1.60;;
45784;SDS011;31489;51.404;5.474;2022-12-20T01:40:54;2.78;;;1.52;;
45784;SDS011;31489;51.404;5.474;2022-12-20T01:43:21;3.13;;;1.40;;
45784;SDS011;31489;51.404;5.474;2022-12-20T01:45:48;2.20;;;1.50;;
45784;SDS011;31489;51.404;5.474;2022-12-20T01:48:19;5.80;;;1.88;;
45784;SDS011;31489;51.404;5.474;2022-12-20T01:50:49;2.00;;;1.50;;
45784;SDS011;31489;51.404;5.474;2022-12-20T01:53:16;3.70;;;1.63;;
45784;SDS011;31489;51.404;5.474;2022-12-20T01:55:44;2.60;;;2.10;;
45784;SDS011;31489;51.404;5.474;2022-12-20T01:58:11;3.35;;;1.90;;
45784;SDS011;31489;51.404;5.474;2022-12-20T02:00:40;2.83;;;1.85;;
45784;SDS011;31489;51.404;5.474;2022-12-20T02:03:07;2.38;;;1.70;;
45784;SDS011;31489;51.404;5.474;2022-12-20T02:05:37;3.78;;;2.10;;
45784;SDS011;31489;51.404;5.474;2022-12-20T02:08:04;2.55;;;1.75;;
45784;SDS011;31489;51.404;5.474;2022-12-20T02:10:34;3.03;;;1.90;;
45784;SDS011;31489;51.404;5.474;2022-12-20T02:13:19;2.45;;;1.40;;
45784;SDS011;31489;51.404;5.474;2022-12-20T02:16:00;4.72;;;1.65;;
45784;SDS011;31489;51.404;5.474;2022-12-20T02:18:29;3.10;;;2.08;;
45784;SDS011;31489;51.404;5.474;2022-12-20T02:21:23;3.65;;;2.00;;
45784;SDS011;31489;51.404;5.474;2022-12-20T02:30:04;5.35;;;1.40;;
45784;SDS011;31489;51.404;5.474;2022-12-20T02:32:48;2.13;;;1.52;;
45784;SDS011;31489;51.404;5.474;2022-12-20T02:35:24;2.28;;;1.70;;
45784;SDS011;31489;51.404;5.474;2022-12-20T02:37:53;3.78;;;2.45;;
45784;SDS011;31489;51.404;5.474;2022-12-20T02:40:27;2.75;;;1.80;;
45784;SDS011;31489;51.404;5.474;2022-12-20T02:42:59;1.52;;;1.35;;
45784;SDS011;31489;51.404;5.474;2022-12-20T02:45:30;1.67;;;1.45;;
45784;SDS011;31489;51.404;5.474;2022-12-20T02:48:01;2.40;;;1.80;;
45784;SDS011;31489;51.404;5.474;2022-12-20T02:50:34;3.03;;;1.65;;
45784;SDS011;31489;51.404;5.474;2022-12-20T02:53:04;3.28;;;1.70;;
45784;SDS011;31489;51.404;5.474;2022-12-20T02:55:37;2.20;;;1.50;;
45784;SDS011;31489;51.404;5.474;2022-12-20T02:58:11;3.10;;;1.55;;
45784;SDS011;31489;51.404;5.474;2022-12-20T03:00:45;2.78;;;1.77;;
45784;SDS011;31489;51.404;5.474;2022-12-20T03:03:13;2.38;;;1.50;;
45784;SDS011;31489;51.404;5.474;2022-12-20T03:05:52;2.57;;;1.40;;
45784;SDS011;31489;51.404;5.474;2022-12-20T03:08:20;1.77;;;1.40;;
45784;SDS011;31489;51.404;5.474;2022-12-20T03:10:47;3.33;;;1.45;;
45784;SDS011;31489;51.404;5.474;2022-12-20T03:13:13;6.60;;;2.00;;
45784;SDS011;31489;51.404;5.474;2022-12-20T03:15:39;2.47;;;1.38;;
45784;SDS011;31489;51.404;5.474;2022-12-20T03:18:04;4.20;;;1.52;;
45784;SDS011;31489;51.404;5.474;2022-12-20T03:20:30;2.83;;;1.45;;
45784;SDS011;31489;51.404;5.474;2022-12-20T03:22:56;2.78;;;1.40;;
45784;SDS011;31489;51.404;5.474;2022-12-20T03:25:21;3.90;;;1.48;;
45784;SDS011;31489;51.404;5.474;2022-12-20T03:27:47;2.38;;;1.70;;
45784;SDS011;31489;51.404;5.474;2022-12-20T03:30:13;3.05;;;1.70;;
45784;SDS011;31489;51.404;5.474;2022-12-20T03:32:39;2.35;;;1.60;;
45784;SDS011;31489;51.404;5.474;2022-12-20T03:35:05;2.63;;;1.60;;
45784;SDS011;31489;51.404;5.474;2022-12-20T03:37:31;2.45;;;1.38;;
45784;SDS011;31489;51.404;5.474;2022-12-20T03:39:56;3.28;;;1.75;;
45784;SDS011;31489;51.404;5.474;2022-12-20T03:42:22;2.03;;;1.45;;
45784;SDS011;31489;51.404;5.474;2022-12-20T03:44:47;1.88;;;1.58;;
45784;SDS011;31489;51.404;5.474;2022-12-20T03:47:13;2.83;;;1.55;;
45784;SDS011;31489;51.404;5.474;2022-12-20T03:49:39;2.78;;;1.50;;
45784;SDS011;31489;51.404;5.474;2022-12-20T03:52:05;1.90;;;1.42;;
45784;SDS011;31489;51.404;5.474;2022-12-20T03:54:30;4.53;;;1.63;;
45784;SDS011;31489;51.404;5.474;2022-12-20T03:56:56;3.80;;;1.50;;
45784;SDS011;31489;51.404;5.474;2022-12-20T03:59:21;2.92;;;1.58;;
45784;SDS011;31489;51.404;5.474;2022-12-20T04:01:47;4.10;;;1.45;;
45784;SDS011;31489;51.404;5.474;2022-12-20T04:04:13;4.53;;;1.52;;
45784;SDS011;31489;51.404;5.474;2022-12-20T04:06:39;3.53;;;1.40;;
45784;SDS011;31489;51.404;5.474;2022-12-20T04:09:05;2.10;;;1.90;;
45784;SDS011;31489;51.404;5.474;2022-12-20T04:11:31;1.30;;;1.20;;
45784;SDS011;31489;51.404;5.474;2022-12-20T04:13:57;2.10;;;1.23;;
45784;SDS011;31489;51.404;5.474;2022-12-20T04:16:26;3.28;;;1.60;;
45784;SDS011;31489;51.404;5.474;2022-12-20T04:18:53;1.73;;;1.52;;
45784;SDS011;31489;51.404;5.474;2022-12-20T04:21:22;2.65;;;1.23;;
45784;SDS011;31489;51.404;5.474;2022-12-20T04:23:52;2.28;;;1.55;;
45784;SDS011;31489;51.404;5.474;2022-12-20T04:26:18;3.15;;;1.50;;
45784;SDS011;31489;51.404;5.474;2022-12-20T04:28:44;1.90;;;1.30;;
45784;SDS011;31489;51.404;5.474;2022-12-20T04:31:09;3.80;;;1.80;;
45784;SDS011;31489;51.404;5.474;2022-12-20T04:33:35;3.55;;;1.58;;
45784;SDS011;31489;51.404;5.474;2022-12-20T04:36:01;2.63;;;1.55;;
45784;SDS011;31489;51.404;5.474;2022-12-20T04:38:27;4.20;;;1.60;;
45784;SDS011;31489;51.404;5.474;2022-12-20T04:40:53;3.13;;;1.45;;
45784;SDS011;31489;51.404;5.474;2022-12-20T04:43:20;1.77;;;1.42;;
45784;SDS011;31489;51.404;5.474;2022-12-20T04:45:46;2.63;;;1.70;;
45784;SDS011;31489;51.404;5.474;2022-12-20T04:48:13;1.90;;;1.30;;
45784;SDS011;31489;51.404;5.474;2022-12-20T04:50:39;1.52;;;1.15;;
45784;SDS011;31489;51.404;5.474;2022-12-20T04:53:05;5.03;;;1.83;;
45784;SDS011;31489;51.404;5.474;2022-12-20T04:55:49;3.58;;;1.48;;
45784;SDS011;31489;51.404;5.474;2022-12-20T04:58:15;2.15;;;1.48;;
45784;SDS011;31489;51.404;5.474;2022-12-20T05:00:40;2.65;;;1.40;;
45784;SDS011;31489;51.404;5.474;2022-12-20T05:03:06;2.90;;;1.48;;
45784;SDS011;31489;51.404;5.474;2022-12-20T05:05:32;3.63;;;1.45;;
45784;SDS011;31489;51.404;5.474;2022-12-20T05:07:57;4.88;;;1.40;;
45784;SDS011;31489;51.404;5.474;2022-12-20T05:10:23;2.90;;;1.67;;
45784;SDS011;31489;51.404;5.474;2022-12-20T05:12:49;2.70;;;1.50;;
45784;SDS011;31489;51.404;5.474;2022-12-20T05:15:15;3.75;;;1.40;;
45784;SDS011;31489;51.404;5.474;2022-12-20T05:17:41;2.30;;;1.35;;
45784;SDS011;31489;51.404;5.474;2022-12-20T05:20:07;1.60;;;1.50;;
45784;SDS011;31489;51.404;5.474;2022-12-20T05:22:32;2.40;;;1.70;;
45784;SDS011;31489;51.404;5.474;2022-12-20T05:25:17;2.75;;;1.20;;
45784;SDS011;31489;51.404;5.474;2022-12-20T05:28:01;3.50;;;1.60;;
45784;SDS011;31489;51.404;5.474;2022-12-20T05:30:27;2.65;;;1.38;;
45784;SDS011;31489;51.404;5.474;2022-12-20T05:32:52;5.07;;;1.50;;
45784;SDS011;31489;51.404;5.474;2022-12-20T05:35:18;2.95;;;1.70;;
45784;SDS011;31489;51.404;5.474;2022-12-20T05:37:44;1.55;;;1.42;;
45784;SDS011;31489;51.404;5.474;2022-12-20T05:40:10;3.97;;;1.90;;
45784;SDS011;31489;51.404;5.474;2022-12-20T05:42:36;2.30;;;1.50;;
45784;SDS011;31489;51.404;5.474;2022-12-20T05:45:02;4.35;;;1.70;;
45784;SDS011;31489;51.404;5.474;2022-12-20T05:47:28;3.08;;;1.70;;
45784;SDS011;31489;51.404;5.474;2022-12-20T05:49:57;1.65;;;1.50;;
45784;SDS011;31489;51.404;5.474;2022-12-20T05:52:23;2.78;;;1.25;;
45784;SDS011;31489;51.404;5.474;2022-12-20T05:54:49;4.13;;;1.75;;
45784;SDS011;31489;51.404;5.474;2022-12-20T05:57:15;4.18;;;1.55;;
45784;SDS011;31489;51.404;5.474;2022-12-20T05:59:40;2.40;;;1.55;;
45784;SDS011;31489;51.404;5.474;2022-12-20T06:02:06;4.88;;;1.50;;
45784;SDS011;31489;51.404;5.474;2022-12-20T06:04:31;2.80;;;1.52;;
45784;SDS011;31489;51.404;5.474;2022-12-20T06:06:57;3.20;;;1.33;;
45784;SDS011;31489;51.404;5.474;2022-12-20T06:09:23;3.67;;;1.40;;
45784;SDS011;31489;51.404;5.474;2022-12-20T06:11:49;1.50;;;1.00;;
45784;SDS011;31489;51.404;5.474;2022-12-20T06:14:15;2.92;;;1.60;;
45784;SDS011;31489;51.404;5.474;2022-12-20T06:16:40;2.15;;;1.48;;
45784;SDS011;31489;51.404;5.474;2022-12-20T06:19:06;2.08;;;1.40;;
45784;SDS011;31489;51.404;5.474;2022-12-20T06:21:33;2.65;;;1.48;;
45784;SDS011;31489;51.404;5.474;2022-12-20T06:24:00;3.67;;;1.95;;
45784;SDS011;31489;51.404;5.474;2022-12-20T06:26:26;4.28;;;1.50;;
45784;SDS011;31489;51.404;5.474;2022-12-20T06:28:51;3.63;;;1.40;;
45784;SDS011;31489;51.404;5.474;2022-12-20T06:31:18;3.60;;;1.38;;
45784;SDS011;31489;51.404;5.474;2022-12-20T06:33:44;3.83;;;1.50;;
45784;SDS011;31489;51.404;5.474;2022-12-20T06:36:10;3.55;;;1.73;;
45784;SDS011;31489;51.404;5.474;2022-12-20T06:38:36;3.75;;;1.50;;
45784;SDS011;31489;51.404;5.474;2022-12-20T06:41:01;3.70;;;1.90;;
45784;SDS011;31489;51.404;5.474;2022-12-20T06:43:27;2.00;;;1.63;;
45784;SDS011;31489;51.404;5.474;2022-12-20T06:45:53;4.20;;;2.00;;
45784;SDS011;31489;51.404;5.474;2022-12-20T06:48:19;3.65;;;1.52;;
45784;SDS011;31489;51.404;5.474;2022-12-20T06:50:48;2.47;;;1.95;;
45784;SDS011;31489;51.404;5.474;2022-12-20T06:53:13;3.00;;;1.48;;
45784;SDS011;31489;51.404;5.474;2022-12-20T06:55:39;1.92;;;1.70;;
45784;SDS011;31489;51.404;5.474;2022-12-20T06:58:05;4.80;;;1.38;;
45784;SDS011;31489;51.404;5.474;2022-12-20T07:00:30;2.40;;;1.70;;
45784;SDS011;31489;51.404;5.474;2022-12-20T07:02:57;3.15;;;1.65;;
45784;SDS011;31489;51.404;5.474;2022-12-20T07:05:22;3.90;;;2.00;;
45784;SDS011;31489;51.404;5.474;2022-12-20T07:07:48;3.65;;;1.73;;
45784;SDS011;31489;51.404;5.474;2022-12-20T07:10:14;1.77;;;1.65;;
45784;SDS011;31489;51.404;5.474;2022-12-20T07:12:40;4.53;;;1.70;;
45784;SDS011;31489;51.404;5.474;2022-12-20T07:15:06;2.95;;;1.65;;
45784;SDS011;31489;51.404;5.474;2022-12-20T07:17:32;2.55;;;1.60;;
45784;SDS011;31489;51.404;5.474;2022-12-20T07:19:58;2.92;;;1.80;;
45784;SDS011;31489;51.404;5.474;2022-12-20T07:22:24;2.03;;;1.45;;
45784;SDS011;31489;51.404;5.474;2022-12-20T07:24:50;3.75;;;1.50;;
45784;SDS011;31489;51.404;5.474;2022-12-20T07:27:15;3.53;;;1.70;;
45784;SDS011;31489;51.404;5.474;2022-12-20T07:29:41;2.13;;;1.60;;
45784;SDS011;31489;51.404;5.474;2022-12-20T07:32:07;4.32;;;2.05;;
45784;SDS011;31489;51.404;5.474;2022-12-20T07:34:33;3.72;;;1.45;;
45784;SDS011;31489;51.404;5.474;2022-12-20T07:37:00;2.88;;;1.33;;
45784;SDS011;31489;51.404;5.474;2022-12-20T07:39:26;2.15;;;1.60;;
45784;SDS011;31489;51.404;5.474;2022-12-20T07:41:53;2.83;;;1.40;;
45784;SDS011;31489;51.404;5.474;2022-12-20T07:44:19;3.20;;;1.75;;
45784;SDS011;31489;51.404;5.474;2022-12-20T07:46:45;3.20;;;1.60;;
45784;SDS011;31489;51.404;5.474;2022-12-20T07:49:11;3.17;;;1.60;;
45784;SDS011;31489;51.404;5.474;2022-12-20T07:51:38;4.00;;;1.20;;
45784;SDS011;31489;51.404;5.474;2022-12-20T07:54:18;2.58;;;1.23;;
45784;SDS011;31489;51.404;5.474;2022-12-20T07:56:51;3.13;;;1.05;;
45784;SDS011;31489;51.404;5.474;2022-12-20T07:59:21;5.50;;;1.40;;
45784;SDS011;31489;51.404;5.474;2022-12-20T08:01:52;2.20;;;1.23;;
45784;SDS011;31489;51.404;5.474;2022-12-20T08:04:18;2.75;;;1.05;;
45784;SDS011;31489;51.404;5.474;2022-12-20T08:06:48;2.08;;;1.05;;
45784;SDS011;31489;51.404;5.474;2022-12-20T08:09:15;2.20;;;1.13;;
45784;SDS011;31489;51.404;5.474;2022-12-20T08:11:42;2.83;;;1.20;;
45784;SDS011;31489;51.404;5.474;2022-12-20T08:14:10;1.75;;;1.05;;
45784;SDS011;31489;51.404;5.474;2022-12-20T08:16:37;1.95;;;1.17;;
45784;SDS011;31489;51.404;5.474;2022-12-20T08:19:02;4.25;;;1.10;;
45784;SDS011;31489;51.404;5.474;2022-12-20T08:21:28;5.40;;;1.30;;
45784;SDS011;31489;51.404;5.474;2022-12-20T08:23:54;2.85;;;1.17;;
45784;SDS011;31489;51.404;5.474;2022-12-20T08:26:20;2.45;;;1.17;;
45784;SDS011;31489;51.404;5.474;2022-12-20T08:28:46;2.72;;;1.20;;
45784;SDS011;31489;51.404;5.474;2022-12-20T08:31:12;1.35;;;1.17;;
45784;SDS011;31489;51.404;5.474;2022-12-20T08:33:38;2.80;;;1.30;;
45784;SDS011;31489;51.404;5.474;2022-12-20T08:36:06;2.08;;;1.15;;
45784;SDS011;31489;51.404;5.474;2022-12-20T08:38:33;2.08;;;1.27;;
45784;SDS011;31489;51.404;5.474;2022-12-20T08:43:30;2.63;;;1.48;;
45784;SDS011;31489;51.404;5.474;2022-12-20T08:45:56;1.20;;;1.10;;
45784;SDS011;31489;51.404;5.474;2022-12-20T08:48:22;2.33;;;1.40;;
45784;SDS011;31489;51.404;5.474;2022-12-20T08:50:53;3.33;;;1.13;;
45784;SDS011;31489;51.404;5.474;2022-12-20T08:53:23;2.17;;;1.15;;
45784;SDS011;31489;51.404;5.474;2022-12-20T08:55:49;2.22;;;1.50;;
45784;SDS011;31489;51.404;5.474;2022-12-20T08:58:15;3.13;;;1.27;;
45784;SDS011;31489;51.404;5.474;2022-12-20T09:00:42;2.95;;;1.60;;
45784;SDS011;31489;51.404;5.474;2022-12-20T09:03:08;1.33;;;1.02;;
45784;SDS011;31489;51.404;5.474;2022-12-20T09:05:35;2.30;;;1.30;;
45784;SDS011;31489;51.404;5.474;2022-12-20T09:08:07;2.60;;;1.40;;
45784;SDS011;31489;51.404;5.474;2022-12-20T09:10:32;2.17;;;1.20;;
45784;SDS011;31489;51.404;5.474;2022-12-20T09:12:58;2.72;;;1.50;;
45784;SDS011;31489;51.404;5.474;2022-12-20T09:15:23;5.18;;;1.60;;
45784;SDS011;31489;51.404;5.474;2022-12-20T09:17:51;3.70;;;1.30;;
45784;SDS011;31489;51.404;5.474;2022-12-20T09:20:17;3.20;;;1.55;;
45784;SDS011;31489;51.404;5.474;2022-12-20T09:22:43;2.88;;;1.23;;
45784;SDS011;31489;51.404;5.474;2022-12-20T09:25:08;1.48;;;1.20;;
45784;SDS011;31489;51.404;5.474;2022-12-20T09:27:34;2.20;;;1.25;;
45784;SDS011;31489;51.404;5.474;2022-12-20T09:30:00;1.88;;;1.20;;
45784;SDS011;31489;51.404;5.474;2022-12-20T09:32:25;2.88;;;1.30;;
45784;SDS011;31489;51.404;5.474;2022-12-20T09:34:51;2.55;;;1.70;;
45784;SDS011;31489;51.404;5.474;2022-12-20T09:37:17;4.47;;;1.40;;
45784;SDS011;31489;51.404;5.474;2022-12-20T09:39:42;2.30;;;1.45;;
45784;SDS011;31489;51.404;5.474;2022-12-20T09:42:08;1.45;;;1.20;;
45784;SDS011;31489;51.404;5.474;2022-12-20T09:44:35;3.13;;;1.40;;
45784;SDS011;31489;51.404;5.474;2022-12-20T09:47:05;3.97;;;1.33;;
45784;SDS011;31489;51.404;5.474;2022-12-20T09:49:35;1.85;;;1.55;;
45784;SDS011;31489;51.404;5.474;2022-12-20T09:58:00;4.68;;;1.40;;
45784;SDS011;31489;51.404;5.474;2022-12-20T10:00:35;4.03;;;1.20;;
45784;SDS011;31489;51.404;5.474;2022-12-20T10:03:09;2.95;;;1.58;;
45784;SDS011;31489;51.404;5.474;2022-12-20T10:05:51;1.75;;;1.20;;
45784;SDS011;31489;51.404;5.474;2022-12-20T10:14:19;2.22;;;1.38;;
45784;SDS011;31489;51.404;5.474;2022-12-20T10:17:00;3.03;;;1.50;;
45784;SDS011;31489;51.404;5.474;2022-12-20T10:22:44;2.78;;;1.50;;
45784;SDS011;31489;51.404;5.474;2022-12-20T10:25:21;4.50;;;1.52;;
45784;SDS011;31489;51.404;5.474;2022-12-20T10:27:49;2.85;;;1.30;;
45784;SDS011;31489;51.404;5.474;2022-12-20T10:30:19;3.38;;;1.60;;
45784;SDS011;31489;51.404;5.474;2022-12-20T10:32:48;6.47;;;1.38;;
45784;SDS011;31489;51.404;5.474;2022-12-20T10:35:19;2.90;;;1.35;;
45784;SDS011;31489;51.404;5.474;2022-12-20T10:37:59;2.28;;;1.48;;
45784;SDS011;31489;51.404;5.474;2022-12-20T10:40:37;1.85;;;1.35;;
45784;SDS011;31489;51.404;5.474;2022-12-20T10:43:05;2.72;;;1.50;;
45784;SDS011;31489;51.404;5.474;2022-12-20T10:45:39;2.17;;;1.60;;
45784;SDS011;31489;51.404;5.474;2022-12-20T10:53:28;4.13;;;1.60;;
45784;SDS011;31489;51.404;5.474;2022-12-20T10:58:52;3.97;;;1.52;;
45784;SDS011;31489;51.404;5.474;2022-12-20T11:01:18;5.57;;;1.40;;
45784;SDS011;31489;51.404;5.474;2022-12-20T11:03:59;3.47;;;1.60;;
45784;SDS011;31489;51.404;5.474;2022-12-20T11:14:40;3.42;;;1.60;;
45784;SDS011;31489;51.404;5.474;2022-12-20T11:40:31;3.10;;;1.77;;
45784;SDS011;31489;51.404;5.474;2022-12-20T11:43:00;6.93;;;2.50;;
45784;SDS011;31489;51.404;5.474;2022-12-20T11:53:41;4.05;;;2.10;;
45784;SDS011;31489;51.404;5.474;2022-12-20T11:56:14;3.35;;;1.75;;
45784;SDS011;31489;51.404;5.474;2022-12-20T12:01:12;3.20;;;1.88;;
45784;SDS011;31489;51.404;5.474;2022-12-20T12:03:49;3.42;;;1.80;;
45784;SDS011;31489;51.404;5.474;2022-12-20T12:06:26;6.97;;;1.73;;
45784;SDS011;31489;51.404;5.474;2022-12-20T12:12:03;4.25;;;1.98;;
45784;SDS011;31489;51.404;5.474;2022-12-20T12:17:37;2.67;;;1.80;;
45784;SDS011;31489;51.404;5.474;2022-12-20T12:20:20;5.25;;;1.90;;
45784;SDS011;31489;51.404;5.474;2022-12-20T12:22:54;2.17;;;1.50;;
45784;SDS011;31489;51.404;5.474;2022-12-20T12:25:27;4.10;;;2.00;;
45784;SDS011;31489;51.404;5.474;2022-12-20T12:27:52;3.20;;;1.90;;
45784;SDS011;31489;51.404;5.474;2022-12-20T12:30:18;3.22;;;1.52;;
45784;SDS011;31489;51.404;5.474;2022-12-20T12:46:46;3.25;;;1.88;;
45784;SDS011;31489;51.404;5.474;2022-12-20T12:49:19;2.78;;;1.85;;
45784;SDS011;31489;51.404;5.474;2022-12-20T12:51:54;2.90;;;1.88;;
45784;SDS011;31489;51.404;5.474;2022-12-20T12:54:25;2.83;;;1.70;;
45784;SDS011;31489;51.404;5.474;2022-12-20T12:57:27;2.80;;;2.25;;
45784;SDS011;31489;51.404;5.474;2022-12-20T12:59:46;3.13;;;1.83;;
45784;SDS011;31489;51.404;5.474;2022-12-20T13:12:59;1.92;;;1.73;;
45784;SDS011;31489;51.404;5.474;2022-12-20T13:17:53;2.85;;;1.70;;
45784;SDS011;31489;51.404;5.474;2022-12-20T13:20:36;2.55;;;1.65;;
45784;SDS011;31489;51.404;5.474;2022-12-20T13:25:29;4.35;;;1.95;;
45784;SDS011;31489;51.404;5.474;2022-12-20T13:28:35;2.60;;;1.83;;
45784;SDS011;31489;51.404;5.474;2022-12-20T13:30:41;3.27;;;1.60;;
45784;SDS011;31489;51.404;5.474;2022-12-20T13:36:01;4.30;;;1.63;;
45784;SDS011;31489;51.404;5.474;2022-12-20T13:43:50;3.17;;;1.90;;
45784;SDS011;31489;51.404;5.474;2022-12-20T13:46:21;3.15;;;2.10;;
45784;SDS011;31489;51.404;5.474;2022-12-20T13:48:58;3.22;;;2.08;;
45784;SDS011;31489;51.404;5.474;2022-12-20T13:51:27;2.88;;;2.08;;
45784;SDS011;31489;51.404;5.474;2022-12-20T13:54:03;4.35;;;2.30;;
45784;SDS011;31489;51.404;5.474;2022-12-20T13:56:47;5.57;;;2.30;;
45784;SDS011;31489;51.404;5.474;2022-12-20T14:01:55;5.57;;;2.20;;
45784;SDS011;31489;51.404;5.474;2022-12-20T14:04:24;2.65;;;2.20;;
45784;SDS011;31489;51.404;5.474;2022-12-20T14:06:55;2.53;;;2.00;;
45784;SDS011;31489;51.404;5.474;2022-12-20T14:09:36;3.13;;;2.00;;
45784;SDS011;31489;51.404;5.474;2022-12-20T14:12:10;3.58;;;2.08;;
45784;SDS011;31489;51.404;5.474;2022-12-20T14:14:42;2.92;;;2.08;;
45784;SDS011;31489;51.404;5.474;2022-12-20T14:17:15;3.88;;;2.00;;
45784;SDS011;31489;51.404;5.474;2022-12-20T14:19:41;2.88;;;1.92;;
45784;SDS011;31489;51.404;5.474;2022-12-20T14:22:08;3.28;;;2.05;;
45784;SDS011;31489;51.404;5.474;2022-12-20T14:24:37;4.32;;;2.40;;
45784;SDS011;31489;51.404;5.474;2022-12-20T14:27:07;5.00;;;1.90;;
45784;SDS011;31489;51.404;5.474;2022-12-20T14:29:38;3.53;;;1.90;;
45784;SDS011;31489;51.404;5.474;2022-12-20T14:32:04;3.60;;;1.85;;
45784;SDS011;31489;51.404;5.474;2022-12-20T14:34:30;4.78;;;1.95;;
45784;SDS011;31489;51.404;5.474;2022-12-20T14:42:34;3.65;;;1.88;;
45784;SDS011;31489;51.404;5.474;2022-12-20T14:45:02;5.20;;;2.70;;
45784;SDS011;31489;51.404;5.474;2022-12-20T14:47:47;5.45;;;2.55;;
45784;SDS011;31489;51.404;5.474;2022-12-20T14:50:34;2.80;;;1.80;;
45784;SDS011;31489;51.404;5.474;2022-12-20T14:53:01;2.70;;;1.90;;
45784;SDS011;31489;51.404;5.474;2022-12-20T14:55:32;3.78;;;2.17;;
45784;SDS011;31489;51.404;5.474;2022-12-20T14:58:00;3.47;;;2.05;;
45784;SDS011;31489;51.404;5.474;2022-12-20T15:00:31;5.25;;;2.45;;
45784;SDS011;31489;51.404;5.474;2022-12-20T15:03:00;4.50;;;2.40;;
45784;SDS011;31489;51.404;5.474;2022-12-20T15:10:42;3.88;;;2.40;;
45784;SDS011;31489;51.404;5.474;2022-12-20T15:13:34;4.78;;;2.15;;
45784;SDS011;31489;51.404;5.474;2022-12-20T15:16:13;4.30;;;2.20;;
45784;SDS011;31489;51.404;5.474;2022-12-20T15:18:41;5.97;;;2.57;;
45784;SDS011;31489;51.404;5.474;2022-12-20T15:21:17;3.70;;;2.47;;
45784;SDS011;31489;51.404;5.474;2022-12-20T15:24:05;4.53;;;2.38;;
45784;SDS011;31489;51.404;5.474;2022-12-20T15:26:36;4.25;;;2.33;;
45784;SDS011;31489;51.404;5.474;2022-12-20T15:29:02;4.32;;;2.28;;
45784;SDS011;31489;51.404;5.474;2022-12-20T15:31:28;4.05;;;2.47;;
45784;SDS011;31489;51.404;5.474;2022-12-20T15:33:57;4.47;;;2.33;;
45784;SDS011;31489;51.404;5.474;2022-12-20T15:36:23;4.07;;;2.50;;
45784;SDS011;31489;51.404;5.474;2022-12-20T15:38:51;4.22;;;2.63;;
45784;SDS011;31489;51.404;5.474;2022-12-20T15:41:20;4.00;;;2.45;;
45784;SDS011;31489;51.404;5.474;2022-12-20T15:43:49;4.13;;;2.35;;
45784;SDS011;31489;51.404;5.474;2022-12-20T15:46:17;3.78;;;2.35;;
45784;SDS011;31489;51.404;5.474;2022-12-20T15:48:43;8.27;;;2.53;;
45784;SDS011;31489;51.404;5.474;2022-12-20T15:51:13;4.28;;;2.38;;
45784;SDS011;31489;51.404;5.474;2022-12-20T15:53:42;3.45;;;2.53;;
45784;SDS011;31489;51.404;5.474;2022-12-20T15:56:13;4.70;;;2.45;;
45784;SDS011;31489;51.404;5.474;2022-12-20T15:58:42;5.03;;;2.53;;
45784;SDS011;31489;51.404;5.474;2022-12-20T16:01:08;6.40;;;2.70;;
45784;SDS011;31489;51.404;5.474;2022-12-20T16:03:38;3.85;;;2.30;;
45784;SDS011;31489;51.404;5.474;2022-12-20T16:06:03;3.88;;;2.50;;
45784;SDS011;31489;51.404;5.474;2022-12-20T16:08:29;3.17;;;2.70;;
45784;SDS011;31489;51.404;5.474;2022-12-20T16:10:55;4.75;;;2.83;;
45784;SDS011;31489;51.404;5.474;2022-12-20T16:13:23;3.22;;;2.42;;
45784;SDS011;31489;51.404;5.474;2022-12-20T16:15:49;5.07;;;2.58;;
45784;SDS011;31489;51.404;5.474;2022-12-20T16:18:15;5.32;;;2.80;;
45784;SDS011;31489;51.404;5.474;2022-12-20T16:20:41;4.80;;;2.70;;
45784;SDS011;31489;51.404;5.474;2022-12-20T16:23:17;4.78;;;2.85;;
45784;SDS011;31489;51.404;5.474;2022-12-20T16:25:46;3.75;;;2.75;;
45784;SDS011;31489;51.404;5.474;2022-12-20T16:28:12;5.18;;;2.90;;
45784;SDS011;31489;51.404;5.474;2022-12-20T16:30:38;6.45;;;3.08;;
45784;SDS011;31489;51.404;5.474;2022-12-20T16:33:03;3.72;;;2.80;;
45784;SDS011;31489;51.404;5.474;2022-12-20T16:35:31;5.10;;;2.58;;
45784;SDS011;31489;51.404;5.474;2022-12-20T16:38:00;3.47;;;2.65;;
45784;SDS011;31489;51.404;5.474;2022-12-20T16:40:28;4.95;;;3.03;;
45784;SDS011;31489;51.404;5.474;2022-12-20T16:42:56;3.75;;;2.65;;
45784;SDS011;31489;51.404;5.474;2022-12-20T16:45:24;4.00;;;2.72;;
45784;SDS011;31489;51.404;5.474;2022-12-20T16:47:52;5.22;;;3.17;;
45784;SDS011;31489;51.404;5.474;2022-12-20T16:50:19;3.47;;;2.72;;
45784;SDS011;31489;51.404;5.474;2022-12-20T16:52:47;4.63;;;3.40;;
45784;SDS011;31489;51.404;5.474;2022-12-20T16:55:18;5.13;;;3.45;;
45784;SDS011;31489;51.404;5.474;2022-12-20T16:57:47;4.55;;;3.30;;
45784;SDS011;31489;51.404;5.474;2022-12-20T17:00:17;6.70;;;3.30;;
45784;SDS011;31489;51.404;5.474;2022-12-20T17:02:47;7.03;;;3.67;;
45784;SDS011;31489;51.404;5.474;2022-12-20T17:05:27;5.13;;;3.38;;
45784;SDS011;31489;51.404;5.474;2022-12-20T17:07:55;4.80;;;2.78;;
45784;SDS011;31489;51.404;5.474;2022-12-20T17:10:22;6.40;;;3.60;;